Time;durP1;ratioP1;P1;durP2;ratioP2;P2;SDS_P1;SDS_P2;PMS_P1;PMS_P2;Temp;Humidity;BMP_temperature;BMP_pressure;BME280_temperature;BME280_humidity;BME280_pressure;Samples;Min_cycle;Max_cycle;Signal;HPM_P1;HPM_P2
2022/08/24 00:00:00;;;;;;;3.53;1.60;;;;;;;21.83;nan;100573.56;4987851;28;20046;-84
2022/08/24 00:02:25;;;;;;;1.92;1.30;;;;;;;21.87;nan;100576.66;4977821;28;20055;-85
2022/08/24 00:04:51;;;;;;;2.60;1.40;;;;;;;21.88;nan;100573.75;4986489;28;20084;-84
2022/08/24 00:07:18;;;;;;;2.40;1.65;;;;;;;21.80;nan;100572.16;4979623;28;20042;-85
2022/08/24 00:09:45;;;;;;;2.25;1.55;;;;;;;21.70;nan;100571.88;4979735;28;20043;-84
2022/08/24 00:12:12;;;;;;;3.05;1.50;;;;;;;21.61;nan;100571.34;4978787;28;20070;-84
2022/08/24 00:14:38;;;;;;;2.30;1.35;;;;;;;21.52;nan;100579.94;4970235;28;20042;-84
2022/08/24 00:17:04;;;;;;;3.08;1.40;;;;;;;21.40;nan;100572.63;4979880;28;20030;-85
2022/08/24 00:19:30;;;;;;;2.95;1.42;;;;;;;21.38;nan;100571.13;4980971;28;20035;-85
2022/08/24 00:21:55;;;;;;;2.47;1.35;;;;;;;21.31;nan;100576.59;4990207;28;20041;-85
2022/08/24 00:24:20;;;;;;;2.42;1.50;;;;;;;21.31;nan;100578.44;4979899;28;20042;-84
2022/08/24 00:26:47;;;;;;;1.80;1.30;;;;;;;21.28;nan;100582.41;4980965;28;20043;-84
2022/08/24 00:29:14;;;;;;;2.13;1.20;;;;;;;21.27;nan;100577.25;4988236;28;20404;-84
2022/08/24 00:31:39;;;;;;;2.30;1.38;;;;;;;21.22;nan;100575.22;4990029;28;20341;-85
2022/08/24 00:34:05;;;;;;;2.30;1.38;;;;;;;21.18;nan;100580.22;4986154;28;20065;-84
2022/08/24 00:36:31;;;;;;;;;;;;;;;21.24;nan;100570.44;4972248;28;20039;-85
2022/08/24 00:38:56;;;;;;;2.55;1.67;;;;;;;21.31;nan;100571.22;4971424;28;19914;-85
2022/08/24 00:41:21;;;;;;;2.60;1.60;;;;;;;21.50;nan;100572.09;4974336;28;20027;-84
2022/08/24 00:43:53;;;;;;;2.40;1.40;;;;;;;21.56;nan;100565.00;4984086;28;20403;-84
2022/08/24 00:46:27;;;;;;;2.42;1.40;;;;;;;21.57;nan;100561.25;4981096;28;20125;-84
2022/08/24 00:49:01;;;;;;;3.45;1.83;;;;;;;21.63;nan;100560.34;4989371;28;20535;-84
2022/08/24 00:51:32;;;;;;;3.60;1.80;;;;;;;21.65;nan;100558.28;4990563;28;20038;-84
2022/08/24 00:54:04;;;;;;;3.25;1.50;;;;;;;21.63;nan;100555.78;4974152;28;20026;-84
2022/08/24 00:56:36;;;;;;;1.65;1.23;;;;;;;21.59;nan;100557.28;4990707;28;20034;-84
2022/08/24 00:59:15;;;;;;;1.77;1.35;;;;;;;21.55;nan;100557.97;4988407;28;20039;-84
2022/08/24 01:01:43;;;;;;;3.00;1.60;;;;;;;21.57;nan;100561.25;4972888;28;20000;-83
2022/08/24 01:04:15;;;;;;;2.80;1.65;;;;;;;21.57;nan;100554.00;4980024;28;20986;-85
2022/08/24 01:06:41;;;;;;;3.20;1.45;;;;;;;21.55;nan;100560.66;4972680;28;20042;-84
2022/08/24 01:09:06;;;;;;;2.83;1.30;;;;;;;21.45;nan;100561.16;4982541;28;20090;-84
2022/08/24 01:11:32;;;;;;;2.00;1.30;;;;;;;21.30;nan;100556.09;4983539;28;20123;-84
2022/08/24 01:13:59;;;;;;;2.25;1.50;;;;;;;21.16;nan;100559.97;4973203;28;20065;-85
2022/08/24 01:19:28;;;;;;;1.92;1.23;;;;;;;20.91;nan;100568.03;4971766;28;20042;-84
2022/08/24 01:22:31;;;;;;;2.30;1.42;;;;;;;20.82;nan;100567.47;4980288;28;20427;-84
2022/08/24 01:24:58;;;;;;;2.47;1.60;;;;;;;20.93;nan;100568.66;4980164;28;20060;-85
2022/08/24 01:27:23;;;;;;;2.72;1.67;;;;;;;21.12;nan;100572.22;4985560;28;20035;-84
2022/08/24 01:29:50;;;;;;;3.67;1.52;;;;;;;21.21;nan;100582.47;4985495;28;20091;-84
2022/08/24 01:32:17;;;;;;;2.72;1.63;;;;;;;21.26;nan;100571.06;4973137;28;20023;-84
2022/08/24 01:34:43;;;;;;;2.80;1.63;;;;;;;21.31;nan;100571.22;4982335;28;20388;-84
2022/08/24 01:37:10;;;;;;;3.20;1.83;;;;;;;21.36;nan;100575.94;4989480;28;20048;-83
2022/08/24 01:39:42;;;;;;;3.30;1.90;;;;;;;21.44;nan;100574.84;4983198;28;20421;-85
2022/08/24 01:42:08;;;;;;;2.75;1.70;;;;;;;21.46;nan;100580.84;4987782;28;20026;-85
2022/08/24 01:44:35;;;;;;;2.38;1.73;;;;;;;21.54;nan;100575.16;4973699;28;20043;-84
2022/08/24 01:47:02;;;;;;;2.55;1.55;;;;;;;21.62;nan;100580.25;4976850;28;20173;-85
2022/08/24 01:49:31;;;;;;;2.60;1.80;;;;;;;21.66;nan;100575.22;4976144;28;20655;-84
2022/08/24 01:51:57;;;;;;;2.50;1.70;;;;;;;21.73;nan;100568.72;4977051;28;20081;-84
2022/08/24 01:54:23;;;;;;;3.80;2.10;;;;;;;21.71;nan;100578.88;4969551;28;20113;-84
2022/08/24 01:56:48;;;;;;;2.50;1.73;;;;;;;21.71;nan;100581.56;4970312;28;20125;-84
2022/08/24 01:59:14;;;;;;;3.17;1.60;;;;;;;21.69;nan;100581.00;4984954;28;20065;-84
2022/08/24 02:01:43;;;;;;;2.85;1.60;;;;;;;21.66;nan;100586.81;4977191;28;20294;-87
2022/08/24 02:04:09;;;;;;;3.78;1.80;;;;;;;21.70;nan;100584.50;4977044;28;20567;-86
2022/08/24 02:06:35;;;;;;;3.63;2.08;;;;;;;21.74;nan;100586.53;4969894;28;20034;-85
2022/08/24 02:09:01;;;;;;;6.03;2.25;;;;;;;21.81;nan;100592.66;4987564;28;20038;-84
2022/08/24 02:11:27;;;;;;;4.60;2.20;;;;;;;21.83;nan;100592.41;4987538;28;20070;-84
2022/08/24 02:13:53;;;;;;;4.35;1.70;;;;;;;21.87;nan;100590.13;4972512;28;20114;-83
2022/08/24 02:16:18;;;;;;;4.00;1.70;;;;;;;21.82;nan;100588.91;4988528;28;20026;-85
2022/08/24 02:18:45;;;;;;;3.28;1.73;;;;;;;21.80;nan;100587.50;4981744;28;20034;-84
2022/08/24 02:21:12;;;;;;;3.13;1.63;;;;;;;21.77;nan;100591.47;4977955;28;20030;-85
2022/08/24 02:23:38;;;;;;;3.03;1.88;;;;;;;21.66;nan;100592.19;4984278;28;20027;-85
2022/08/24 02:26:06;;;;;;;1.95;1.45;;;;;;;21.56;nan;100598.09;4978716;28;20458;-84
2022/08/24 02:28:31;;;;;;;2.05;1.30;;;;;;;21.47;nan;100588.66;4968683;28;20069;-84
2022/08/24 02:30:57;;;;;;;3.08;1.40;;;;;;;21.38;nan;100590.81;4969403;28;20043;-85
2022/08/24 02:33:23;;;;;;;2.75;1.50;;;;;;;21.34;nan;100599.53;4969609;28;20061;-85
2022/08/24 02:35:49;;;;;;;2.53;1.60;;;;;;;21.33;nan;100598.72;4967851;28;20031;-84
2022/08/24 02:38:15;;;;;;;2.75;1.70;;;;;;;21.30;nan;100599.13;4970833;28;20061;-84
2022/08/24 02:40:41;;;;;;;2.22;1.52;;;;;;;21.32;nan;100598.94;4986120;28;20038;-84
2022/08/24 02:43:06;;;;;;;2.88;1.60;;;;;;;21.31;nan;100602.66;4979962;28;20475;-84
2022/08/24 02:45:36;;;;;;;2.95;1.60;;;;;;;21.24;nan;100602.72;4976916;28;20041;-86
2022/08/24 02:48:02;;;;;;;3.03;1.70;;;;;;;21.17;nan;100601.97;4977263;28;20053;-84
2022/08/24 02:50:27;;;;;;;2.22;1.60;;;;;;;21.16;nan;100603.81;4977282;28;20027;-84
2022/08/24 02:52:53;;;;;;;2.33;1.70;;;;;;;21.11;nan;100597.44;4979725;28;20038;-84
2022/08/24 02:55:18;;;;;;;3.40;1.88;;;;;;;21.06;nan;100605.34;4981475;28;20077;-84
2022/08/24 02:57:44;;;;;;;2.53;1.52;;;;;;;21.06;nan;100603.47;4983245;28;20130;-84
2022/08/24 03:00:13;;;;;;;3.17;1.83;;;;;;;21.05;nan;100607.22;4982262;28;20030;-84
2022/08/24 03:02:39;;;;;;;3.00;1.60;;;;;;;21.04;nan;100605.56;4987303;28;20152;-84
2022/08/24 03:05:06;;;;;;;2.63;1.55;;;;;;;21.04;nan;100604.75;4982456;28;20167;-84
2022/08/24 03:07:31;;;;;;;2.90;1.90;;;;;;;21.04;nan;100599.38;4970667;28;20088;-83
2022/08/24 03:09:56;;;;;;;3.47;1.58;;;;;;;21.04;nan;100604.75;4979745;28;20544;-83
2022/08/24 03:12:22;;;;;;;2.10;1.30;;;;;;;21.00;nan;100605.19;4991696;28;20091;-84
2022/08/24 03:14:47;;;;;;;4.40;1.75;;;;;;;21.02;nan;100596.06;4983723;28;20123;-84
2022/08/24 03:17:12;;;;;;;2.55;1.40;;;;;;;20.99;nan;100600.84;4970588;28;20031;-84
2022/08/24 03:19:38;;;;;;;3.47;1.90;;;;;;;20.97;nan;100599.41;4970531;28;20057;-84
2022/08/24 03:22:03;;;;;;;3.15;1.75;;;;;;;20.94;nan;100597.16;4971360;28;20031;-84
2022/08/24 03:24:29;;;;;;;2.30;1.23;;;;;;;20.99;nan;100592.78;4983170;28;20397;-83
2022/08/24 03:26:54;;;;;;;2.35;1.58;;;;;;;20.97;nan;100594.88;4973830;28;20355;-83
2022/08/24 03:29:20;;;;;;;2.63;1.70;;;;;;;20.93;nan;100596.34;4985757;28;20061;-85
2022/08/24 03:31:46;;;;;;;2.83;1.43;;;;;;;20.98;nan;100593.81;4984941;28;20407;-84
2022/08/24 03:34:12;;;;;;;1.63;1.20;;;;;;;20.91;nan;100595.75;4972417;28;20027;-84
2022/08/24 03:36:39;;;;;;;4.60;1.50;;;;;;;20.86;nan;100592.91;4971087;28;20088;-84
2022/08/24 03:39:04;;;;;;;3.90;2.03;;;;;;;20.87;nan;100591.03;4980338;28;20300;-84
2022/08/24 03:41:30;;;;;;;3.13;1.60;;;;;;;20.81;nan;100592.72;4982176;28;20122;-83
2022/08/24 03:43:55;;;;;;;2.20;1.50;;;;;;;20.80;nan;100607.19;4985233;28;20041;-84
2022/08/24 03:46:25;;;;;;;4.13;1.63;;;;;;;20.80;nan;100601.81;4976580;28;21656;-84
2022/08/24 03:48:51;;;;;;;2.95;1.50;;;;;;;20.75;nan;100607.03;4987754;28;20376;-84
2022/08/24 03:51:22;;;;;;;2.22;1.50;;;;;;;20.76;nan;100601.44;4981610;28;20051;-84
2022/08/24 03:53:48;;;;;;;3.42;1.70;;;;;;;20.73;nan;100601.03;4982902;28;20045;-84
2022/08/24 03:56:13;;;;;;;3.13;1.67;;;;;;;20.69;nan;100597.13;4978513;28;20038;-84
2022/08/24 03:58:40;;;;;;;2.30;1.60;;;;;;;20.67;nan;100597.38;4968504;28;20031;-84
2022/08/24 04:01:07;;;;;;;2.92;1.70;;;;;;;20.64;nan;100599.66;4967261;28;20031;-84
2022/08/24 04:03:40;;;;;;;3.40;2.20;;;;;;;20.58;nan;100596.78;4979781;28;20035;-84
2022/08/24 04:06:07;;;;;;;2.47;1.60;;;;;;;20.51;nan;100601.34;4978338;28;20030;-83
2022/08/24 04:08:33;;;;;;;2.45;1.67;;;;;;;20.46;nan;100597.66;4987862;28;20045;-84
2022/08/24 04:10:59;;;;;;;2.85;1.45;;;;;;;20.38;nan;100598.75;4969429;28;20136;-84
2022/08/24 04:13:25;;;;;;;2.20;1.50;;;;;;;20.33;nan;100598.53;4969033;28;20031;-84
2022/08/24 04:15:51;;;;;;;2.47;1.67;;;;;;;20.30;nan;100607.03;4968745;28;20496;-84
2022/08/24 04:18:17;;;;;;;2.15;1.27;;;;;;;20.27;nan;100610.16;4987967;28;20088;-84
2022/08/24 04:20:43;;;;;;;2.22;1.55;;;;;;;20.23;nan;100607.06;4972493;28;20035;-83
2022/08/24 04:23:09;;;;;;;;;;;;;;;20.24;nan;100608.72;4971029;28;20117;-84
2022/08/24 04:25:46;;;;;;;2.38;1.70;;;;;;;20.20;nan;100612.03;4987845;28;20217;-83
2022/08/24 04:28:14;;;;;;;2.03;1.30;;;;;;;20.12;nan;100616.63;4971958;28;20038;-84
2022/08/24 04:30:41;;;;;;;1.90;1.20;;;;;;;20.03;nan;100619.75;4980444;28;20039;-83
2022/08/24 04:33:09;;;;;;;1.77;1.20;;;;;;;19.94;nan;100628.03;4977347;28;20085;-84
2022/08/24 04:35:44;;;;;;;1.58;1.15;;;;;;;19.86;nan;100620.22;4968209;28;20038;-83
2022/08/24 04:38:10;;;;;;;1.80;1.20;;;;;;;19.79;nan;100624.78;4971204;28;20038;-83
2022/08/24 04:40:40;;;;;;;1.83;1.20;;;;;;;19.75;nan;100634.25;4973846;28;20038;-83
2022/08/24 04:43:05;;;;;;;2.78;1.45;;;;;;;19.72;nan;100637.38;4979435;28;20031;-84
2022/08/24 04:45:32;;;;;;;2.20;1.30;;;;;;;19.70;nan;100648.31;4987937;28;20030;-84
2022/08/24 04:47:58;;;;;;;2.85;1.75;;;;;;;19.69;nan;100638.63;4980629;28;20528;-84
2022/08/24 04:50:23;;;;;;;3.17;1.98;;;;;;;19.67;nan;100640.66;4973918;28;20035;-84
2022/08/24 04:52:49;;;;;;;3.05;1.80;;;;;;;19.69;nan;100643.97;4967926;28;20035;-83
2022/08/24 04:55:14;;;;;;;2.38;1.55;;;;;;;19.69;nan;100637.81;4984359;28;20027;-83
2022/08/24 04:57:40;;;;;;;2.20;1.40;;;;;;;19.68;nan;100645.00;4983869;28;20038;-83
2022/08/24 05:00:08;;;;;;;2.28;1.30;;;;;;;19.67;nan;100643.34;4988563;28;20042;-84
2022/08/24 05:02:33;;;;;;;3.08;1.40;;;;;;;19.65;nan;100653.44;4981095;28;20503;-84
2022/08/24 05:04:58;;;;;;;2.00;1.40;;;;;;;19.64;nan;100642.91;4969136;28;20039;-83
2022/08/24 05:07:24;;;;;;;1.90;1.40;;;;;;;19.67;nan;100659.44;4982044;28;20035;-84
2022/08/24 05:09:50;;;;;;;3.15;1.75;;;;;;;19.73;nan;100658.63;4977456;28;20038;-84
2022/08/24 05:12:15;;;;;;;2.65;1.60;;;;;;;19.79;nan;100656.16;4970144;28;20111;-84
2022/08/24 05:14:40;;;;;;;3.08;1.38;;;;;;;19.83;nan;100660.91;4988291;28;20046;-83
2022/08/24 05:17:06;;;;;;;2.40;1.60;;;;;;;19.94;nan;100664.78;4985388;28;20038;-83
2022/08/24 05:19:31;;;;;;;2.92;1.45;;;;;;;20.09;nan;100665.38;4979029;28;20263;-83
2022/08/24 05:21:56;;;;;;;1.77;1.30;;;;;;;20.26;nan;100659.50;4970490;28;20049;-84
2022/08/24 05:24:22;;;;;;;2.40;1.70;;;;;;;20.35;nan;100656.41;4976462;28;20122;-84
2022/08/24 05:26:47;;;;;;;4.30;1.88;;;;;;;20.45;nan;100665.84;4969307;28;20041;-84
2022/08/24 05:29:13;;;;;;;3.50;1.88;;;;;;;20.63;nan;100668.69;4970425;28;20083;-84
2022/08/24 05:31:43;;;;;;;3.53;2.17;;;;;;;20.84;nan;100661.34;4984280;28;20035;-84
2022/08/24 05:34:08;;;;;;;3.78;2.15;;;;;;;21.08;nan;100665.94;4977901;28;20699;-85
2022/08/24 05:36:37;;;;;;;3.50;2.17;;;;;;;21.38;nan;100663.44;4967733;28;20100;-84
2022/08/24 05:39:06;;;;;;;3.40;1.90;;;;;;;21.75;nan;100670.78;4976951;28;20026;-83
2022/08/24 05:41:31;;;;;;;3.53;2.13;;;;;;;22.02;nan;100666.78;4979702;28;20026;-84
2022/08/24 05:43:57;;;;;;;4.30;2.05;;;;;;;22.21;nan;100670.31;4977078;28;20037;-83
2022/08/24 05:46:23;;;;;;;3.40;1.77;;;;;;;22.43;nan;100672.56;4982575;28;20427;-84
2022/08/24 05:48:48;;;;;;;2.90;1.70;;;;;;;22.56;nan;100669.69;4974179;28;20065;-84
2022/08/24 05:51:13;;;;;;;2.13;1.42;;;;;;;22.68;nan;100667.84;4970003;28;20030;-84
2022/08/24 05:53:40;;;;;;;4.78;2.00;;;;;;;22.85;nan;100672.59;4979555;28;20134;-84
2022/08/24 05:56:07;;;;;;;2.92;2.08;;;;;;;23.03;nan;100669.88;4979550;28;20095;-84
2022/08/24 05:58:33;;;;;;;5.07;2.20;;;;;;;23.22;nan;100672.50;4972538;28;20041;-84
2022/08/24 06:01:04;;;;;;;4.38;2.05;;;;;;;23.48;nan;100682.06;4974165;28;20062;-84
2022/08/24 06:03:29;;;;;;;3.90;1.70;;;;;;;23.88;nan;100676.81;4965153;28;20408;-83
2022/08/24 06:05:54;;;;;;;5.13;2.03;;;;;;;24.12;nan;100680.28;4966292;28;20031;-83
2022/08/24 06:08:20;;;;;;;4.00;1.90;;;;;;;24.36;nan;100685.66;4965850;28;20886;-85
2022/08/24 06:10:48;;;;;;;3.67;1.75;;;;;;;24.72;nan;100694.47;4973376;28;20489;-84
2022/08/24 06:13:15;;;;;;;3.17;1.80;;;;;;;25.01;nan;100679.03;4968888;28;20415;-84
2022/08/24 06:15:41;;;;;;;2.45;1.58;;;;;;;25.29;nan;100680.91;4978814;28;20469;-84
2022/08/24 06:18:07;;;;;;;3.58;1.65;;;;;;;25.35;nan;100692.63;4973677;28;20035;-85
2022/08/24 06:20:39;;;;;;;2.67;1.60;;;;;;;25.42;nan;100691.41;4981252;28;20353;-84
2022/08/24 06:23:05;;;;;;;2.58;1.40;;;;;;;25.58;nan;100688.94;4966649;28;20042;-85
2022/08/24 06:28:14;;;;;;;3.95;1.60;;;;;;;25.75;nan;100678.09;4977526;28;20135;-85
2022/08/24 06:30:41;;;;;;;3.40;1.80;;;;;;;25.75;nan;100678.91;4969162;28;20113;-84
2022/08/24 06:33:07;;;;;;;3.17;1.65;;;;;;;25.79;nan;100674.63;4979464;28;20038;-84
2022/08/24 06:35:32;;;;;;;2.92;1.80;;;;;;;25.89;nan;100687.53;4988840;28;20019;-84
2022/08/24 06:37:58;;;;;;;2.15;1.40;;;;;;;26.08;nan;100687.22;4989615;28;20038;-84
2022/08/24 06:40:24;;;;;;;1.92;1.25;;;;;;;26.25;nan;100693.44;4982807;28;20031;-85
2022/08/24 06:42:50;;;;;;;3.50;1.60;;;;;;;26.44;nan;100693.94;4971343;28;20070;-85
2022/08/24 06:45:15;;;;;;;3.58;1.58;;;;;;;26.49;nan;100692.09;4987843;28;20054;-84
2022/08/24 06:47:40;;;;;;;1.88;1.27;;;;;;;26.58;nan;100683.53;5004085;28;20041;-84
2022/08/24 06:50:07;;;;;;;2.22;1.30;;;;;;;26.82;nan;100694.91;4987041;28;20035;-84
2022/08/24 06:52:33;;;;;;;3.88;1.40;;;;;;;27.18;nan;100697.97;4987597;28;20100;-84
2022/08/24 06:54:59;;;;;;;3.05;1.52;;;;;;;27.17;nan;100690.88;4987765;28;20034;-84
2022/08/24 06:57:24;;;;;;;3.53;1.45;;;;;;;27.26;nan;100698.31;4982900;28;20030;-83
2022/08/24 06:59:49;;;;;;;2.88;1.40;;;;;;;27.42;nan;100699.28;4975515;28;20038;-84
2022/08/24 07:02:17;;;;;;;2.17;1.58;;;;;;;27.66;nan;100693.47;4979694;28;20403;-84
2022/08/24 07:04:43;;;;;;;2.50;1.17;;;;;;;27.90;nan;100693.91;4980167;28;20459;-84
2022/08/24 07:07:08;;;;;;;2.60;1.33;;;;;;;28.26;nan;100700.34;4997971;28;20655;-84
2022/08/24 07:09:34;;;;;;;5.35;1.73;;;;;;;28.29;nan;100701.72;4979352;28;20038;-84
2022/08/24 07:12:00;;;;;;;4.13;1.80;;;;;;;28.47;nan;100704.00;4977716;28;20062;-84
2022/08/24 07:14:25;;;;;;;3.53;1.95;;;;;;;28.67;nan;100699.69;4975564;28;20560;-85
2022/08/24 07:16:51;;;;;;;;;;;;;;;28.85;nan;100712.00;4968333;28;20039;-85
2022/08/24 07:19:16;;;;;;;;;;;;;;;29.11;nan;100702.81;4968068;28;19925;-84
2022/08/24 07:21:41;;;;;;;;;;;;;;;29.31;nan;100703.91;4968019;28;19914;-84
2022/08/24 07:24:07;;;;;;;3.55;1.95;;;;;;;29.29;nan;100709.59;4983303;28;20088;-85
2022/08/24 07:26:32;;;;;;;2.75;2.15;;;;;;;29.13;nan;100710.72;4982887;28;20030;-85
2022/08/24 07:29:04;;;;;;;2.72;2.03;;;;;;;29.25;nan;100705.81;4986861;28;20555;-85
2022/08/24 07:31:31;;;;;;;3.80;2.10;;;;;;;29.42;nan;100700.09;4985617;28;20494;-84
2022/08/24 07:33:56;;;;;;;;;;;;;;;29.44;nan;100706.06;4987395;28;20499;-84
2022/08/24 07:36:22;;;;;;;3.90;1.90;;;;;;;29.73;nan;100708.25;4973124;28;19942;-85
2022/08/24 07:38:47;;;;;;;3.67;2.03;;;;;;;29.85;nan;100704.13;4976649;28;20047;-84
2022/08/24 07:41:13;;;;;;;2.30;1.80;;;;;;;30.16;nan;100711.41;4967903;28;20102;-84
2022/08/24 07:43:40;;;;;;;5.80;2.03;;;;;;;30.18;nan;100712.75;4974438;28;20239;-84
2022/08/24 07:46:06;;;;;;;3.47;1.70;;;;;;;30.29;nan;100710.00;4977243;28;20582;-85
2022/08/24 07:48:32;;;;;;;3.10;1.83;;;;;;;30.72;nan;100718.53;4986620;28;20411;-85
2022/08/24 07:51:05;;;;;;;;;;;;;;;31.14;nan;100719.94;4972283;28;20043;-85
2022/08/24 07:53:30;;;;;;;3.33;2.00;;;;;;;31.20;nan;100718.78;4973693;28;19918;-85
2022/08/24 07:55:55;;;;;;;5.80;2.00;;;;;;;31.31;nan;100728.53;4966988;28;20031;-85
2022/08/24 07:58:21;;;;;;;3.70;2.33;;;;;;;31.35;nan;100720.59;4966762;28;20276;-84
2022/08/24 08:00:47;;;;;;;;;;;;;;;31.36;nan;100716.75;4976047;28;20456;-84
2022/08/24 08:03:12;;;;;;;5.05;2.00;;;;;;;31.74;nan;100721.31;4986684;28;20426;-84
2022/08/24 08:05:39;;;;;;;3.33;2.13;;;;;;;31.92;nan;100724.44;4980132;28;20458;-85
2022/08/24 08:08:05;;;;;;;2.45;1.60;;;;;;;32.08;nan;100723.16;4969489;28;20050;-85
2022/08/24 08:10:34;;;;;;;2.63;1.50;;;;;;;32.70;nan;100725.97;4979388;28;21080;-85
2022/08/24 08:13:00;;;;;;;4.10;1.80;;;;;;;32.84;nan;100723.31;4976176;28;20039;-84
2022/08/24 08:15:25;;;;;;;3.05;1.50;;;;;;;32.93;nan;100721.53;4987750;28;20033;-85
2022/08/24 08:17:51;;;;;;;4.80;2.08;;;;;;;32.90;nan;100726.81;4978916;28;20097;-86
2022/08/24 08:20:17;;;;;;;3.95;1.80;;;;;;;32.76;nan;100718.50;5002043;28;20030;-85
2022/08/24 08:25:26;;;;;;;3.80;2.00;;;;;;;32.19;nan;100723.06;4994704;28;20044;-85
2022/08/24 08:27:51;;;;;;;2.20;1.40;;;;;;;32.77;nan;100720.97;5002319;28;20098;-85
2022/08/24 08:30:17;;;;;;;4.28;1.92;;;;;;;32.86;nan;100723.03;4973486;28;20510;-84
2022/08/24 08:32:42;;;;;;;3.72;1.70;;;;;;;32.88;nan;100729.81;4966850;28;20108;-84
2022/08/24 08:35:08;;;;;;;2.65;1.80;;;;;;;33.26;nan;100724.34;4977430;28;20065;-85
2022/08/24 08:37:34;;;;;;;2.72;1.70;;;;;;;33.68;nan;100719.81;4979725;28;20057;-85
2022/08/24 08:39:59;;;;;;;3.95;1.80;;;;;;;34.38;nan;100721.47;4976032;28;20117;-85
2022/08/24 08:42:29;;;;;;;4.57;1.70;;;;;;;34.78;nan;100712.66;4977713;28;20041;-84
2022/08/24 08:45:17;;;;;;;5.57;1.73;;;;;;;35.21;nan;100726.75;4982819;28;20069;-84
2022/08/24 08:48:20;;;;;;;3.97;1.45;;;;;;;35.34;nan;100718.75;4965783;28;20035;-84
2022/08/24 08:51:09;;;;;;;3.75;1.45;;;;;;;35.62;nan;100719.41;4975522;28;20031;-85
2022/08/24 08:54:02;;;;;;;2.58;1.30;;;;;;;35.81;nan;100727.44;4981167;28;20048;-85
2022/08/24 08:56:37;;;;;;;2.42;1.30;;;;;;;36.21;nan;100722.75;4995617;28;20057;-85
2022/08/24 08:59:23;;;;;;;3.60;1.50;;;;;;;36.53;nan;100727.00;4975742;28;20041;-85
2022/08/24 09:02:10;;;;;;;2.72;1.38;;;;;;;37.03;nan;100723.00;4982589;28;20038;-85
2022/08/24 09:04:58;;;;;;;2.53;1.50;;;;;;;37.50;nan;100725.06;4979563;28;20200;-85
2022/08/24 09:07:39;;;;;;;2.95;1.20;;;;;;;38.23;nan;100719.41;4966638;28;20038;-85
2022/08/24 09:10:13;;;;;;;;;;;;;;;38.67;nan;100725.47;4973850;28;20035;-86
2022/08/24 09:13:10;;;;;;;2.30;1.30;;;;;;;38.35;nan;100721.44;4966649;28;20298;-86
2022/08/24 09:15:47;;;;;;;2.58;1.30;;;;;;;38.71;nan;100720.91;4975014;28;20039;-85
2022/08/24 09:18:31;;;;;;;3.58;1.30;;;;;;;39.43;nan;100721.56;4965528;28;20039;-85
2022/08/24 09:21:21;;;;;;;3.20;1.42;;;;;;;39.50;nan;100719.03;4977868;28;20111;-86
2022/08/24 09:24:35;;;;;;;2.85;1.17;;;;;;;39.37;nan;100716.59;4988684;28;20121;-87
2022/08/24 09:27:19;;;;;;;1.92;1.20;;;;;;;39.43;nan;100718.00;4994238;28;20039;-87
2022/08/24 09:30:13;;;;;;;2.60;1.27;;;;;;;39.60;nan;100726.09;4990911;28;20049;-86
2022/08/24 09:32:45;;;;;;;2.70;1.25;;;;;;;40.19;nan;100724.84;4970168;28;20039;-85
2022/08/24 09:35:14;;;;;;;2.67;1.30;;;;;;;40.50;nan;100728.97;4974611;28;20042;-87
2022/08/24 09:37:49;;;;;;;5.38;1.50;;;;;;;40.43;nan;100721.25;4980841;28;20044;-87
2022/08/24 09:40:36;;;;;;;3.42;1.30;;;;;;;40.91;nan;100727.03;4984366;28;20498;-87
2022/08/24 09:43:33;;;;;;;4.30;1.80;;;;;;;40.66;nan;100721.53;4982207;28;20377;-86
2022/08/24 09:46:19;;;;;;;3.75;1.40;;;;;;;41.05;nan;100715.50;4984980;28;20046;-87
2022/08/24 09:49:10;;;;;;;3.63;1.58;;;;;;;41.33;nan;100718.28;4978422;28;20054;-87
2022/08/24 09:51:45;;;;;;;2.05;1.38;;;;;;;41.97;nan;100717.16;4972355;28;20411;-87
2022/08/24 09:54:58;;;;;;;3.08;1.30;;;;;;;41.52;nan;100718.38;4973246;28;20530;-86
2022/08/24 09:57:35;;;;;;;3.70;1.40;;;;;;;40.61;nan;100712.66;4983840;28;20050;-84
2022/08/24 10:00:33;;;;;;;3.00;1.35;;;;;;;40.99;nan;100703.88;4976238;28;20034;-85
2022/08/24 10:03:14;;;;;;;3.15;1.40;;;;;;;40.95;nan;100703.78;4967474;28;20035;-85
2022/08/24 10:05:51;;;;;;;2.58;1.50;;;;;;;40.50;nan;100713.16;4976226;28;20073;-85
2022/08/24 10:08:39;;;;;;;2.95;1.30;;;;;;;40.77;nan;100707.22;4981247;28;20062;-87
2022/08/24 10:11:39;;;;;;;3.70;1.38;;;;;;;41.40;nan;100696.25;4984735;28;20123;-83
2022/08/24 10:14:34;;;;;;;4.90;1.60;;;;;;;41.65;nan;100698.91;4983332;28;20504;-84
2022/08/24 10:17:18;;;;;;;2.75;1.55;;;;;;;42.92;nan;100701.34;4966861;28;20030;-85
2022/08/24 10:20:06;;;;;;;2.30;1.10;;;;;;;44.12;nan;100700.25;4976505;28;20380;-85
2022/08/24 10:22:53;;;;;;;4.10;1.45;;;;;;;43.89;nan;100698.31;4965260;28;20112;-85
2022/08/24 10:25:37;;;;;;;4.05;1.30;;;;;;;44.43;nan;100699.09;4977294;28;20031;-85
2022/08/24 10:28:39;;;;;;;2.97;1.40;;;;;;;45.18;nan;100697.16;4967173;28;20045;-86
2022/08/24 10:31:11;;;;;;;2.85;1.20;;;;;;;45.92;nan;100689.81;4965396;28;20035;-85
2022/08/24 10:34:13;;;;;;;3.00;1.25;;;;;;;46.65;nan;100677.78;4959270;28;20047;-86
2022/08/24 10:37:23;;;;;;;2.05;1.20;;;;;;;46.97;nan;100678.72;4979411;28;20122;-85
2022/08/24 10:40:05;;;;;;;1.52;1.30;;;;;;;45.91;nan;100677.00;4963024;28;20046;-84
2022/08/24 10:46:26;;;;;;;2.35;1.17;;;;;;;44.83;nan;100675.28;4979765;28;20037;-86
2022/08/24 10:48:52;;;;;;;2.00;1.20;;;;;;;44.80;nan;100673.25;4941738;28;20049;-85
2022/08/24 10:51:42;;;;;;;3.25;1.10;;;;;;;44.42;nan;100667.63;4995587;28;20038;-86
2022/08/24 10:54:11;;;;;;;;;;;;;;;44.26;nan;100665.00;4972687;28;20035;-85
2022/08/24 10:56:57;;;;;;;2.97;1.15;;;;;;;44.12;nan;100664.81;4984409;28;19913;-85
2022/08/24 10:59:29;;;;;;;1.80;1.10;;;;;;;43.16;nan;100659.25;4984294;28;20341;-85
2022/08/24 11:02:10;;;;;;;1.63;1.15;;;;;;;42.36;nan;100656.09;4982096;28;20096;-85
2022/08/24 11:04:38;;;;;;;1.42;0.93;;;;;;;41.95;nan;100647.28;4982776;28;20039;-84
2022/08/24 11:07:19;;;;;;;1.75;1.02;;;;;;;41.49;nan;100648.91;4968915;28;20042;-84
2022/08/24 11:09:52;;;;;;;5.72;1.13;;;;;;;41.39;nan;100651.06;4976216;28;20035;-85
2022/08/24 11:12:37;;;;;;;3.40;1.30;;;;;;;41.32;nan;100650.88;4979283;28;20402;-85
2022/08/24 11:15:17;;;;;;;2.47;1.23;;;;;;;40.87;nan;100651.25;4988982;28;20041;-84
2022/08/24 11:18:03;;;;;;;1.40;0.90;;;;;;;41.64;nan;100650.06;4992712;28;20042;-84
2022/08/24 11:20:41;;;;;;;1.98;1.10;;;;;;;42.41;nan;100644.72;4967825;28;20200;-85
2022/08/24 11:23:34;;;;;;;3.47;1.40;;;;;;;43.48;nan;100645.94;4967829;28;20031;-84
2022/08/24 11:26:13;;;;;;;2.47;1.00;;;;;;;44.62;nan;100645.94;4985129;28;20440;-85
2022/08/24 11:28:44;;;;;;;2.72;1.13;;;;;;;44.59;nan;100643.09;4988138;28;20559;-85
2022/08/24 11:31:26;;;;;;;3.42;1.30;;;;;;;44.20;nan;100633.06;4978306;28;20031;-85
2022/08/24 11:34:02;;;;;;;3.20;1.40;;;;;;;44.29;nan;100639.16;4981485;28;20125;-85
2022/08/24 11:36:33;;;;;;;2.45;1.00;;;;;;;45.65;nan;100631.38;4980845;28;20058;-86
2022/08/24 11:39:33;;;;;;;2.55;1.10;;;;;;;46.96;nan;100623.94;4988833;28;20041;-85
2022/08/24 11:42:20;;;;;;;2.83;1.20;;;;;;;47.12;nan;100637.53;4975412;28;20030;-86
2022/08/24 11:44:47;;;;;;;2.92;1.08;;;;;;;45.20;nan;100627.81;4986154;28;20042;-85
2022/08/24 11:47:42;;;;;;;3.20;1.40;;;;;;;45.55;nan;100626.47;4967742;28;20502;-86
2022/08/24 11:50:17;;;;;;;3.05;1.50;;;;;;;44.28;nan;100628.38;4965423;28;20085;-85
2022/08/24 11:53:04;;;;;;;2.05;1.35;;;;;;;42.82;nan;100625.69;4979487;28;20043;-85
2022/08/24 11:55:38;;;;;;;2.28;1.50;;;;;;;42.46;nan;100620.59;4990896;28;20076;-85
2022/08/24 11:58:24;;;;;;;5.10;1.80;;;;;;;42.34;nan;100624.28;4961360;28;20453;-86
2022/08/24 12:01:11;;;;;;;4.63;1.55;;;;;;;41.91;nan;100618.59;4984614;28;20125;-85
2022/08/24 12:04:41;;;;;;;2.15;1.20;;;;;;;41.90;nan;100616.97;4978073;28;20057;-85
2022/08/24 12:07:37;;;;;;;2.80;1.55;;;;;;;40.98;nan;100613.50;4959806;28;20496;-85
2022/08/24 12:10:16;;;;;;;3.40;1.60;;;;;;;39.69;nan;100616.06;4967746;28;20376;-84
2022/08/24 12:12:51;;;;;;;2.40;1.52;;;;;;;39.42;nan;100614.78;4974376;28;20411;-84
2022/08/24 12:15:36;;;;;;;2.42;1.20;;;;;;;39.18;nan;100617.50;4975823;28;20031;-84